x

Boston 16 Nm East Of Boston, Ma (44013) Wave Buoy

12:50 - Thu 1st Sep 2016 All times are EDT. -4 hours from GMT.

  • Sig Wave height 1.6ft
  • Swell Direction
  • Peak Period 11s
  • Average Period 4s
  • Wind
    11mph, 13mph gusts
  • Sea Temp 68°f
  • Luft Temp 71°f
  • Sea Pressure 1010.4mb
  • Boston 16 Nm East Of Boston, Ma
  • Boston 16 Nm East Of Boston, Ma

More Historic Weather Station data

Upgrade to MSW Pro to gain access to the past 30 days of data for over 8000 Wavebouys and Weather Stations around the globe.

Join Pro

Comparision Forecast

View Surf forecast
   
Do 09/01 12:50 1.6ft 11s 4s 11 13 mph 1010.4mb 68f 71f
Mi 08/31 11:50 1.6ft 11s 5s 11 13 mph 1010.4mb 68f 71f
10:50 1.6ft 11s 7s 13 16 mph 1010.8mb 69f 71f
9:50 1.6ft 11s 7s 9 11 mph 1011.1mb 69f 71f
8:50 1.6ft 11s 7s 11 13 mph 1010.9mb 69f 72f
7:50 2ft 10s 8s 7
mph
1010.9mb 69f 71f
6:50 2ft 11s 8s 11
mph
1010.9mb 69f 74f
5:50 1.6ft 12s 8s 7 9 mph 1010.9mb 69f 73f
4:50 2ft 11s 8s 7 9 mph 1011.1mb 69f 73f
3:50 1.6ft 11s 8s 7 9 mph 1011.5mb 69f 72f
2:50 1.6ft 11s 8s 7 9 mph 1012mb 69f 75f
1:50 1.6ft 11s 7s 7 9 mph 1012.8mb 69f 74f
12:50 1.3ft 11s 7s 4
mph
1013.2mb 69f 73f
11:50 1.6ft 11s 6s 4 7 mph 1013.7mb 68f 72f
10:50 1.6ft 11s 6s 7
mph
1014.3mb 68f 70f
9:50 1.6ft 11s 5s 7 9 mph 1014.4mb 68f 69f
8:50 1.6ft 12s 5s 9 11 mph 1014.7mb 67f 68f
7:50 1.6ft 11s 6s 9 11 mph 1014.8mb 67f 68f
6:50 2ft 11s 6s 9 11 mph 1015.1mb 67f 67f
5:50 2ft 11s 6s 9 11 mph 1015.2mb 67f 67f
4:50 2.5ft 11s 6s 9 11 mph 1015.4mb 68f 67f
3:50 2.5ft 11s 5s 11 13 mph 1015.8mb 68f 68f
2:50 2.5ft 11s 5s 16 18 mph 1016.1mb 68f 68f
1:50 2.5ft 12s 5s 16 18 mph 1015.9mb 68f 69f
12:50 2.5ft 11s 6s 11
mph
1016.2mb 68f 69f
Di 08/30 11:50 2.5ft 11s 4s 13 16 mph 1016.6mb 68f 69f
10:50 2ft 11s 5s 16 18 mph 1016.5mb 68f 69f
9:50 2ft 11s 5s 9 11 mph 1016.4mb 68f 69f
8:50 2ft 11s 5s 9 11 mph 1016.7mb 69f 70f
7:50 2ft 11s 5s 11 13 mph 1016.4mb 69f 70f
6:50 2ft 11s 6s 13
mph
1016.4mb 69f 70f
5:50 2.5ft 12s 7s 13 16 mph 1016.7mb 70f 70f
4:50 2ft 12s 6s 13 16 mph 1017.1mb 70f 70f
3:50 2ft 12s 7s 16 18 mph 1017.5mb 70f 70f
2:50 2ft 12s 8s 13
mph
1018.5mb 70f 69f
1:50 2ft 11s 8s 9 11 mph 1019.1mb 71f 69f
12:50 2.5ft 11s 8s 4 7 mph 1019.9mb 71f 69f
11:50 2.5ft 11s 7s 2
mph
1020.4mb 71f 70f
10:50 2.5ft 11s 7s 2
mph
1021mb 69f 67f
9:50 2.5ft 11s 6s 4 7 mph 1021.5mb 69f 66f
8:50 2.5ft 11s 6s 9 11 mph 1021.3mb 68f 65f
7:50 2.5ft 12s 5s 4 7 mph 1020.9mb 68f 66f
6:50 2.5ft 12s 5s 4
mph
1020.8mb 68f 65f
5:50 2.5ft 11s 5s 11 13 mph 1020.8mb 69f 65f
4:50 2.5ft 12s 6s 11
mph
1020.5mb 69f 66f
3:50 2ft 12s 6s 13 16 mph 1020.4mb 69f 66f
2:50 2ft 12s 7s 11
mph
1020.9mb 69f 67f
1:50 2.5ft 11s 8s 11 13 mph 1020.3mb 69f 68f
Mo 08/29 11:50 2ft 12s 6s 7 9 mph 1020.1mb 69f 69f
10:50 2ft 11s 5s 9 13 mph 1020.1mb 69f 71f
9:50 2ft 12s 5s 9 11 mph 1019.4mb 69f 71f
8:50 2ft 12s 4s 7
mph
1019.2mb 69f 71f
7:50 2ft 13s 5s 11 13 mph 1018.3mb 69f 72f
6:50 2ft 13s 4s 13 16 mph 1017.4mb 69f 74f
5:50 2ft 13s  -  16 18 mph 1016.9mb 69f 75f
4:50 2ft 13s 4s 11 13 mph 1016.8mb 69f 74f
3:50 1.6ft 13s 4s 13 16 mph 1016.4mb 69f 75f
2:50 1.6ft 13s 5s 7 9 mph 1016.5mb 70f 75f
1:50 1.3ft 14s 6s 13 16 mph 1016.2mb 69f 76f
12:50 1.3ft 14s 5s 9 11 mph 1015.9mb 69f 73f
11:50 1.3ft 14s 4s 11
mph
1016mb 68f 72f
10:50 1.6ft 13s 4s 11 16 mph 1016.2mb 68f 71f
9:50 1.6ft 12s 4s 13 16 mph 1016.5mb 68f 70f
8:50 1.6ft 13s 4s 16 18 mph 1016.9mb 68f 70f
7:50 1.6ft 14s 4s 13 16 mph 1017.3mb 68f 69f
6:50 1.6ft 14s 4s 9 11 mph 1017.3mb 68f 69f
5:50 1.6ft 14s 4s 9 11 mph 1017.8mb 68f 69f
4:50 1.3ft 14s 4s 11 16 mph 1018.2mb 68f 69f
3:50 1.6ft 15s 4s 11 16 mph 1018.8mb 68f 68f
2:50 1.6ft 15s 4s 11
mph
1019.4mb 68f 68f
1:50 1.6ft 15s 4s 13
mph
1019.4mb 69f 68f
12:50 1.6ft 15s 4s 11 13 mph 1020.2mb 69f 68f
So 08/28 10:50 1.6ft 15s 4s 13 16 mph 1020.5mb 69f 69f
9:50 2ft 14s 4s 11 13 mph 1020.8mb 70f 70f
8:50 2ft 14s 4s 13 16 mph 1020.8mb 70f 70f
7:50 2ft 3s 3s 16 18 mph 1020.7mb 70f 70f
6:50 1.6ft 3s 3s 16 18 mph 1020.9mb 71f 71f
5:50 1.6ft 3s 3s 16 18 mph 1021.4mb 71f 70f
4:50 1.3ft 2s 3s 16 18 mph 1022mb 71f 70f
3:50 1ft 7s 4s 16 18 mph 1022.8mb 71f 71f
2:50 1ft 8s 4s 11 13 mph 1023.6mb 71f 71f
1:50 1ft 8s 5s 13
mph
1024.2mb 71f 71f
12:50 0.7ft  -  5s 11
mph
1024.6mb 71f 71f
11:50 1ft 8s 5s 7 9 mph 1025.3mb 72f 71f
10:50 0.7ft  -  5s 4
mph
1025.7mb 71f 70f
9:50 0.7ft  -  5s 2 4 mph 1025.7mb 70f 70f
8:50 1ft 8s 5s 2
mph
1025.6mb 70f 71f
7:50 1ft 10s 5s 2
mph
1025.5mb 70f 72f
6:50 1ft 9s 5s 2
mph
1025.3mb 70f 71f